Flight Track Log - Related Links

Times and Time Zones

All times are in EDT time to prevent confusion due to time zone crossing. See the AWI3606 flight status page for this flight to view local times or setup timezone preferences in your user account.

Time Position Orientation Groundspeed Altitude Reporting Facility
EDT Latitude Longitude Course Direction KTS MPH feet Rate Location/Type
Wed 10:44:03 PM 38.8167 -77.0333 57° Northeast 140 161 1,300  Level Potomac TRACON
Wed 10:45:09 PM 38.7667 -77.0333 180° South 187 215 3,300 1,800 Climbing Potomac TRACON
Wed 10:46:00 PM 38.9818 -76.6530 57° Northeast  Level FlightAware Approximate
Wed 10:46:03 PM 38.7500 -76.9833 113° Southeast 246 283 4,900  Level Potomac TRACON
Wed 10:47:00 PM 39.0306 -76.5250 67° East  Level FlightAware Approximate
Wed 10:47:03 PM 38.8000 -76.9167 46° Northeast 273 314 7,000  Level Potomac TRACON
Wed 10:48:00 PM 39.0818 -76.3981 61° Northeast  Level FlightAware Approximate
Wed 10:48:06 PM 38.8672 -76.8475 39° Northeast 334 384 8,900  Level Washington Center
Wed 10:49:00 PM 39.1167 -76.2665 57° Northeast  Level FlightAware Approximate
Wed 10:49:08 PM 38.9261 -76.7869 39° Northeast 317 365 10,900  Level Washington Center
Wed 10:50:08 PM 39.0078 -76.7697 North 301 346 12,800 1,881 Climbing Washington Center
Wed 10:51:06 PM 39.0892 -76.7442 14° North 293 337 14,600 1,210 Climbing Washington Center
Wed 10:52:07 PM 39.1111 -76.6242 77° East 277 319 15,200 900 Climbing Washington Center
Wed 10:53:06 PM 39.1247 -76.4906 82° East 321 369 16,400 1,300 Climbing Washington Center
Wed 10:54:07 PM 39.1381 -76.3569 83° East 348 400 17,800 1,190 Climbing Washington Center
Wed 10:55:07 PM 39.1514 -76.2206 83° East 370 426 18,800 958 Climbing Washington Center
Wed 10:56:06 PM 39.1708 -76.0789 80° East 386 444 19,700 1,000 Climbing Washington Center
Wed 10:57:07 PM 39.1858 -75.9397 82° East 392 451 20,800 893 Climbing Washington Center
Wed 10:58:07 PM 39.2425 -75.8194 59° Northeast 379 436 21,500 756 Climbing Washington Center
Wed 10:59:06 PM 39.3197 -75.7150 46° Northeast 379 436 22,300 706 Climbing Washington Center
Wed 11:00:06 PM 39.4011 -75.6131 44° Northeast 391 450 22,900 645 Climbing Washington Center
Wed 11:01:07 PM 39.4822 -75.5081 45° Northeast 397 457 23,600 650 Climbing Washington Center
Wed 11:02:06 PM 39.5633 -75.4006 46° Northeast 407 468 24,200 600 Climbing Washington Center
Wed 11:03:07 PM 39.6464 -75.2925 45° Northeast 407 468 24,800 885 Climbing Washington Center
Wed 11:04:08 PM 39.7253 -75.1842 47° Northeast 407 468 26,000 1,008 Climbing Washington Center
Wed 11:05:06 PM 39.8106 -75.0569 49° Northeast 417 480 26,800 814 Climbing New York Center
Wed 11:06:06 PM 39.8850 -74.9533 47° Northeast 417 480 27,600 750 Climbing New York Center
Wed 11:07:06 PM 39.9619 -74.8414 48° Northeast 410 472 28,300 694 Climbing New York Center
Wed 11:08:07 PM 40.0386 -74.7319 48° Northeast 400 460 29,000 344 Climbing New York Center
Wed 11:09:08 PM 40.1133 -74.6222 48° Northeast 400 460 29,000  Level New York Center
Wed 11:10:06 PM 40.1981 -74.5128 45° Northeast 410 472 29,000  Level New York Center
Wed 11:11:47 PM 40.3356 -74.3539 41° Northeast 415 478 29,000  Level Boston Center
Wed 11:12:46 PM 40.4247 -74.2556 40° Northeast 415 478 29,000  Level Boston Center
Wed 11:13:47 PM 40.5139 -74.1544 41° Northeast 415 478 29,000  Level Boston Center
Wed 11:14:48 PM 40.6072 -74.0475 41° Northeast 409 471 29,000  Level Boston Center
Wed 11:15:48 PM 40.6981 -73.9539 38° Northeast 409 471 29,000  Level Boston Center
Wed 11:16:49 PM 40.7847 -73.8544 41° Northeast 409 471 29,000  Level Boston Center
Wed 11:17:59 PM 40.8608 -73.7683 41° Northeast 409 471 29,000  Level Boston Center
Wed 11:18:59 PM 40.9644 -73.6386 43° Northeast 414 476 29,000  Level Boston Center
Wed 11:20:00 PM 41.0528 -73.5467 38° Northeast 414 476 29,000  Level Boston Center
Wed 11:21:01 PM 41.1392 -73.4461 41° Northeast 409 471 29,000  Level Boston Center
Wed 11:22:01 PM 41.2256 -73.3481 40° Northeast 409 471 29,000  Level Boston Center
Wed 11:22:59 PM 41.3097 -73.2469 42° Northeast 409 471 29,000  Level Boston Center
Wed 11:24:00 PM 41.3789 -73.1650 42° Northeast 409 471 29,000  Level Boston Center
Wed 11:25:00 PM 41.4797 -73.0469 41° Northeast 409 471 29,000  Level Boston Center
Wed 11:25:58 PM 41.5614 -72.9478 42° Northeast 403 464 29,000  Level Boston Center
Wed 11:26:58 PM 41.6472 -72.8483 41° Northeast 403 464 29,000  Level Boston Center
Wed 11:28:00 PM 41.7331 -72.7461 42° Northeast 403 464 29,000  Level Boston Center
Wed 11:28:59 PM 41.8231 -72.6406 41° Northeast 409 471 29,000  Level Boston Center
Wed 11:29:59 PM 41.9044 -72.5406 42° Northeast 409 471 29,000  Level Boston Center
Wed 11:31:00 PM 41.9878 -72.4372 43° Northeast 409 471 29,000  Level Boston Center
Wed 11:32:01 PM 42.0753 -72.3339 41° Northeast 409 471 29,000  Level Boston Center
Wed 11:32:58 PM 42.1625 -72.2328 41° Northeast 409 471 29,000  Level Boston Center
Wed 11:33:58 PM 42.2458 -72.1289 43° Northeast 409 471 29,000  Level Boston Center
Wed 11:34:58 PM 42.3331 -72.0244 42° Northeast 409 471 29,000  Level Boston Center
Wed 11:36:00 PM 42.4158 -71.9228 42° Northeast 409 471 29,000  Level Boston Center
Wed 11:37:00 PM 42.5031 -71.8206 41° Northeast 409 471 29,000  Level Boston Center
Wed 11:37:58 PM 42.5878 -71.7125 43° Northeast 409 471 29,000  Level Boston Center
Wed 11:39:00 PM 42.6725 -71.6069 42° Northeast 409 471 29,000  Level Boston Center
Wed 11:40:01 PM 42.7633 -71.5042 40° Northeast 415 478 29,000 -42 Level Boston Center
Wed 11:41:23 PM 42.8686 -71.3722 43° Northeast 415 478 28,900  Descending Boston Center
Wed 11:42:22 PM 42.9714 -71.2397 43° Northeast 415 478 29,000 50 Climbing Boston Center
Wed 11:43:23 PM 43.0578 -71.1331 42° Northeast 415 478 29,000  Level Boston Center
Wed 11:44:23 PM 43.1439 -71.0231 43° Northeast 415 478 29,000  Level Boston Center
Wed 11:45:22 PM 43.2322 -70.9128 42° Northeast 415 478 29,000  Level Boston Center
Wed 11:46:23 PM 43.3181 -70.7992 44° Northeast 415 478 29,000  Level Boston Center
Wed 11:47:24 PM 43.4039 -70.6883 43° Northeast 415 478 29,000 -50 Level Boston Center
Wed 11:48:24 PM 43.4897 -70.5800 42° Northeast 415 478 28,900 -50 Descending Boston Center
Wed 11:49:23 PM 43.5775 -70.4683 43° Northeast 415 478 28,900 51 Level Boston Center
Wed 11:50:22 PM 43.6672 -70.3506 43° Northeast 415 478 29,000 -807 Climbing Boston Center
Wed 11:51:22 PM 43.7486 -70.2442 43° Northeast 418 481 27,300 -1,918 Descending Boston Center
Wed 11:52:24 PM 43.8400 -70.1228 44° Northeast 440 506 25,100 -2,049 Descending Boston Center
Wed 11:53:25 PM 43.9231 -70.0131 44° Northeast 434 499 23,100 -2,010 Descending Boston Center
Wed 11:55:00 PM 44.0349 -69.8561 47° Northeast  Level FlightAware Approximate
Wed 11:55:35 PM 44.1117 -69.7711 47° Northeast 407 468 18,700  Level Boston Center
Wed 11:57:00 PM 44.2044 -69.6185 47° Northeast  Level FlightAware Approximate
Wed 11:58:34 PM 44.3167 -69.4658 47° Northeast 359 413 13,500  Level Boston Center
Thu 12:00:00 AM 44.4230 -69.3281 46° Northeast  Level FlightAware Approximate
Thu 12:01:35 AM 44.4694 -69.1847 50° Northeast 299 344 8,200  Level Boston Center
Thu 12:02:34 AM 44.5150 -69.0978 54° Northeast 285 328 6,800 -1,412 Descending Boston Center
Thu 12:03:34 AM 44.5583 -69.0136 54° Northeast 272 313 5,400 -1,350 Descending Boston Center
Thu 12:04:34 AM 44.6039 -68.9322 52° Northeast 267 307 4,100 -1,073 Descending Boston Center
Thu 12:05:37 AM 44.6433 -68.8569 54° Northeast 254 292 3,200 -680 Descending Boston Center
Thu 12:07:00 AM 44.8000 -68.8167 50° Northeast  Level FlightAware Approximate
Thu 12:07:00 AM 44.7818 -68.8327 50° Northeast  Level Estimated
Thu 12:08:41 AM 44.7589 -68.7592 50° Northeast 164 189 1,300  Level Boston Center

Login

Don't have an account? Register now (free) for customized features, flight alerts, and more!